Airfield :
LOGIN :

Register | Disclaimer

   EN    FR    IT 

 










Legend :    VFR   Marginal VFR   IFR   Intensive IFR   Very Intensive IFR
Visi :
Ceiling :
>= 8 km
>= 3000ft
5 to 8 km
1000 to 3000 ft
1500m to 5 km
500 to 1000 ft
800 to 1500m
200 to 500 ft
< 800m
< 200 ft
Symbols :   Thunderstorms  Fog  Heavy snow  Heavy precipitations  Wind > 20 kt
SIGMETs :     Misc.  Thunderstorms  Icing  Turbulence  Mountain Waves  Volcanic Ashes






- Airport Elevation : 14 ft
- IATA code : BRE


EDDW - Bremen Neuenland

CURRENT METAR :
  • 211550Z 10005KT 070V140 6000 BKN003 05/05 Q1009 BECMG 4500 BR

EXPIRED METARs :
  • 211520Z 11005KT 7000 BKN004 05/05 Q1009 BECMG 4500 BR
  • 211450Z 11006KT 7000 BKN004 05/05 Q1009 BECMG 4500 BR
  • 211420Z 10005KT 8000 BKN005 05/05 Q1009 BECMG 4500 BR BKN004
  • 211350Z 09005KT 070V130 8000 BKN005 05/05 Q1009 BECMG 4500 BR BKN004
  • 211320Z 08006KT 8000 BKN005 05/04 Q1009 BECMG 4500 BR BKN004

TAF COR TAF EDDW
Valid from the 21 at 12:00 until the 22 at 12:00 UTC


211152Z 2112/2212 06007KT 3500 BR OVC004
TEMPO 2112/2207 2000 -DZ
PROB30
TEMPO 2112/2115 6000
BECMG 2114/2117 12005KT
BECMG 2204/2207 FEW008
BECMG 2207/2209 7000



MET'MAP, your aeronautical weather chart ! - Copyright ORBIFLY December 2007 - Disclaimer

ORBIFLY MET'MAP TEAM :

Programming & Development : Alexandra Zaïnal
Concept & Development : Baudouin d'Aumeries
Co-Development & Prog : Marc-Olivier Méhu
Technical & hardware support : Manuel Goepfert

Contact : metmap@orbifly.com




SOURCES & CREDITS :

   NOAA